sensor_id;sensor_type;location;lat;lon;timestamp;temperature;humidity
1417;DHT22;703;51.162;13.574;2023-05-07T00:02:20;8.80;99.90
1417;DHT22;703;51.162;13.574;2023-05-07T00:07:12;8.90;99.90
1417;DHT22;703;51.162;13.574;2023-05-07T00:09:37;8.90;99.90
1417;DHT22;703;51.162;13.574;2023-05-07T00:12:03;8.80;99.90
1417;DHT22;703;51.162;13.574;2023-05-07T00:14:28;8.80;99.90
1417;DHT22;703;51.162;13.574;2023-05-07T00:16:55;8.80;99.90
1417;DHT22;703;51.162;13.574;2023-05-07T00:19:21;8.80;99.90
1417;DHT22;703;51.162;13.574;2023-05-07T00:21:49;8.80;99.90
1417;DHT22;703;51.162;13.574;2023-05-07T00:24:15;8.80;99.90
1417;DHT22;703;51.162;13.574;2023-05-07T00:26:43;8.90;99.90
1417;DHT22;703;51.162;13.574;2023-05-07T00:29:09;8.90;99.90
1417;DHT22;703;51.162;13.574;2023-05-07T00:31:34;8.90;99.90
1417;DHT22;703;51.162;13.574;2023-05-07T00:34:00;8.90;99.90
1417;DHT22;703;51.162;13.574;2023-05-07T00:36:26;8.90;99.90
1417;DHT22;703;51.162;13.574;2023-05-07T00:38:51;8.90;99.90
1417;DHT22;703;51.162;13.574;2023-05-07T00:41:17;8.90;99.90
1417;DHT22;703;51.162;13.574;2023-05-07T00:43:42;8.90;99.90
1417;DHT22;703;51.162;13.574;2023-05-07T00:46:08;8.90;99.90
1417;DHT22;703;51.162;13.574;2023-05-07T00:48:33;8.90;99.90
1417;DHT22;703;51.162;13.574;2023-05-07T00:50:59;8.80;99.90
1417;DHT22;703;51.162;13.574;2023-05-07T00:53:25;8.80;99.90
1417;DHT22;703;51.162;13.574;2023-05-07T00:55:50;9.00;99.90
1417;DHT22;703;51.162;13.574;2023-05-07T00:58:16;9.00;99.90
1417;DHT22;703;51.162;13.574;2023-05-07T01:00:41;8.90;99.90
1417;DHT22;703;51.162;13.574;2023-05-07T01:03:07;8.90;99.90
1417;DHT22;703;51.162;13.574;2023-05-07T01:05:32;8.80;99.90
1417;DHT22;703;51.162;13.574;2023-05-07T01:07:58;8.90;99.90
1417;DHT22;703;51.162;13.574;2023-05-07T01:10:24;8.90;99.90
1417;DHT22;703;51.162;13.574;2023-05-07T01:12:50;8.90;99.90
1417;DHT22;703;51.162;13.574;2023-05-07T01:15:17;8.80;99.90
1417;DHT22;703;51.162;13.574;2023-05-07T01:17:43;8.90;99.90
1417;DHT22;703;51.162;13.574;2023-05-07T01:20:08;8.90;99.90
1417;DHT22;703;51.162;13.574;2023-05-07T01:22:36;8.90;99.90
1417;DHT22;703;51.162;13.574;2023-05-07T01:25:02;8.90;99.90
1417;DHT22;703;51.162;13.574;2023-05-07T01:27:28;8.90;99.90
1417;DHT22;703;51.162;13.574;2023-05-07T01:29:54;8.80;99.90
1417;DHT22;703;51.162;13.574;2023-05-07T01:34:55;8.80;99.90
1417;DHT22;703;51.162;13.574;2023-05-07T01:37:21;8.80;99.90
1417;DHT22;703;51.162;13.574;2023-05-07T01:39:47;8.80;99.90
1417;DHT22;703;51.162;13.574;2023-05-07T01:42:13;8.80;99.90
1417;DHT22;703;51.162;13.574;2023-05-07T01:44:38;8.90;99.90
1417;DHT22;703;51.162;13.574;2023-05-07T01:47:04;8.80;99.90
1417;DHT22;703;51.162;13.574;2023-05-07T01:49:29;8.80;99.90
1417;DHT22;703;51.162;13.574;2023-05-07T01:51:55;8.80;99.90
1417;DHT22;703;51.162;13.574;2023-05-07T01:54:25;8.70;99.90
1417;DHT22;703;51.162;13.574;2023-05-07T01:56:50;8.70;99.90
1417;DHT22;703;51.162;13.574;2023-05-07T02:01:42;8.70;99.90
1417;DHT22;703;51.162;13.574;2023-05-07T02:04:07;8.70;99.90
1417;DHT22;703;51.162;13.574;2023-05-07T02:06:32;8.70;99.90
1417;DHT22;703;51.162;13.574;2023-05-07T02:08:58;8.70;99.90
1417;DHT22;703;51.162;13.574;2023-05-07T02:11:23;8.80;99.90
1417;DHT22;703;51.162;13.574;2023-05-07T02:13:50;8.70;99.90
1417;DHT22;703;51.162;13.574;2023-05-07T02:16:15;8.70;99.90
1417;DHT22;703;51.162;13.574;2023-05-07T02:18:41;8.70;99.90
1417;DHT22;703;51.162;13.574;2023-05-07T02:21:06;8.70;99.90
1417;DHT22;703;51.162;13.574;2023-05-07T02:23:32;8.70;99.90
1417;DHT22;703;51.162;13.574;2023-05-07T02:25:57;8.60;99.90
1417;DHT22;703;51.162;13.574;2023-05-07T02:28:23;8.60;99.90
1417;DHT22;703;51.162;13.574;2023-05-07T02:30:48;8.60;99.90
1417;DHT22;703;51.162;13.574;2023-05-07T02:33:14;8.60;99.90
1417;DHT22;703;51.162;13.574;2023-05-07T02:35:40;8.60;99.90
1417;DHT22;703;51.162;13.574;2023-05-07T02:38:05;8.60;99.90
1417;DHT22;703;51.162;13.574;2023-05-07T02:40:31;8.60;99.90
1417;DHT22;703;51.162;13.574;2023-05-07T02:43:02;8.60;99.90
1417;DHT22;703;51.162;13.574;2023-05-07T02:45:27;8.50;99.90
1417;DHT22;703;51.162;13.574;2023-05-07T02:47:52;8.50;99.90
1417;DHT22;703;51.162;13.574;2023-05-07T02:50:18;8.50;99.90
1417;DHT22;703;51.162;13.574;2023-05-07T02:52:43;8.50;99.90
1417;DHT22;703;51.162;13.574;2023-05-07T02:55:09;8.50;99.90
1417;DHT22;703;51.162;13.574;2023-05-07T02:57:34;8.40;99.90
1417;DHT22;703;51.162;13.574;2023-05-07T03:00:06;8.50;99.90
1417;DHT22;703;51.162;13.574;2023-05-07T03:02:35;8.50;99.90
1417;DHT22;703;51.162;13.574;2023-05-07T03:05:00;8.50;99.90
1417;DHT22;703;51.162;13.574;2023-05-07T03:07:26;8.50;99.90
1417;DHT22;703;51.162;13.574;2023-05-07T03:09:52;8.50;99.90
1417;DHT22;703;51.162;13.574;2023-05-07T03:12:18;8.50;99.90
1417;DHT22;703;51.162;13.574;2023-05-07T03:14:44;8.60;99.90
1417;DHT22;703;51.162;13.574;2023-05-07T03:17:09;8.50;99.90
1417;DHT22;703;51.162;13.574;2023-05-07T03:19:35;8.50;99.90
1417;DHT22;703;51.162;13.574;2023-05-07T03:22:00;8.40;99.90
1417;DHT22;703;51.162;13.574;2023-05-07T03:24:26;8.40;99.90
1417;DHT22;703;51.162;13.574;2023-05-07T03:26:51;8.40;99.90
1417;DHT22;703;51.162;13.574;2023-05-07T03:29:17;8.50;99.90
1417;DHT22;703;51.162;13.574;2023-05-07T03:31:42;8.50;99.90
1417;DHT22;703;51.162;13.574;2023-05-07T03:34:08;8.40;99.90
1417;DHT22;703;51.162;13.574;2023-05-07T03:36:33;8.50;99.90
1417;DHT22;703;51.162;13.574;2023-05-07T03:38:59;8.50;99.90
1417;DHT22;703;51.162;13.574;2023-05-07T03:41:24;8.40;99.90
1417;DHT22;703;51.162;13.574;2023-05-07T03:43:51;8.50;99.90
1417;DHT22;703;51.162;13.574;2023-05-07T03:46:16;8.40;99.90
1417;DHT22;703;51.162;13.574;2023-05-07T03:48:42;8.40;99.90
1417;DHT22;703;51.162;13.574;2023-05-07T03:51:07;8.40;99.90
1417;DHT22;703;51.162;13.574;2023-05-07T03:53:33;8.40;99.90
1417;DHT22;703;51.162;13.574;2023-05-07T03:55:58;8.40;99.90
1417;DHT22;703;51.162;13.574;2023-05-07T03:58:24;8.40;99.90
1417;DHT22;703;51.162;13.574;2023-05-07T04:00:49;8.30;99.90
1417;DHT22;703;51.162;13.574;2023-05-07T04:03:15;8.40;99.90
1417;DHT22;703;51.162;13.574;2023-05-07T04:05:43;8.40;99.90
1417;DHT22;703;51.162;13.574;2023-05-07T04:08:09;8.40;99.90
1417;DHT22;703;51.162;13.574;2023-05-07T04:10:35;8.40;99.90
1417;DHT22;703;51.162;13.574;2023-05-07T04:13:00;8.30;99.90
1417;DHT22;703;51.162;13.574;2023-05-07T04:15:26;8.30;99.90
1417;DHT22;703;51.162;13.574;2023-05-07T04:17:51;8.20;99.90
1417;DHT22;703;51.162;13.574;2023-05-07T04:20:17;8.30;99.90
1417;DHT22;703;51.162;13.574;2023-05-07T04:22:43;8.30;99.90
1417;DHT22;703;51.162;13.574;2023-05-07T04:25:08;8.40;99.90
1417;DHT22;703;51.162;13.574;2023-05-07T04:27:36;8.40;99.90
1417;DHT22;703;51.162;13.574;2023-05-07T04:30:03;8.30;99.90
1417;DHT22;703;51.162;13.574;2023-05-07T04:32:29;8.30;99.90
1417;DHT22;703;51.162;13.574;2023-05-07T04:34:55;8.30;99.90
1417;DHT22;703;51.162;13.574;2023-05-07T04:37:20;8.30;99.90
1417;DHT22;703;51.162;13.574;2023-05-07T04:39:46;8.30;99.90
1417;DHT22;703;51.162;13.574;2023-05-07T04:42:14;8.40;99.90
1417;DHT22;703;51.162;13.574;2023-05-07T04:44:39;8.40;99.90
1417;DHT22;703;51.162;13.574;2023-05-07T04:47:05;8.40;99.90
1417;DHT22;703;51.162;13.574;2023-05-07T04:49:31;8.40;99.90
1417;DHT22;703;51.162;13.574;2023-05-07T04:51:57;8.40;99.90
1417;DHT22;703;51.162;13.574;2023-05-07T04:54:22;8.50;99.90
1417;DHT22;703;51.162;13.574;2023-05-07T04:56:48;8.50;99.90
1417;DHT22;703;51.162;13.574;2023-05-07T04:59:13;8.40;99.90
1417;DHT22;703;51.162;13.574;2023-05-07T05:01:38;8.50;99.90
1417;DHT22;703;51.162;13.574;2023-05-07T05:04:04;8.50;99.90
1417;DHT22;703;51.162;13.574;2023-05-07T05:06:30;8.40;99.90
1417;DHT22;703;51.162;13.574;2023-05-07T05:08:55;8.40;99.90
1417;DHT22;703;51.162;13.574;2023-05-07T05:11:21;8.60;99.90
1417;DHT22;703;51.162;13.574;2023-05-07T05:13:46;8.50;99.90
1417;DHT22;703;51.162;13.574;2023-05-07T05:16:14;8.50;99.90
1417;DHT22;703;51.162;13.574;2023-05-07T05:18:40;8.60;99.90
1417;DHT22;703;51.162;13.574;2023-05-07T05:21:06;8.60;99.90
1417;DHT22;703;51.162;13.574;2023-05-07T05:23:31;8.60;99.90
1417;DHT22;703;51.162;13.574;2023-05-07T05:25:57;8.60;99.90
1417;DHT22;703;51.162;13.574;2023-05-07T05:28:23;8.70;99.90
1417;DHT22;703;51.162;13.574;2023-05-07T05:30:48;8.80;99.90
1417;DHT22;703;51.162;13.574;2023-05-07T05:33:14;8.80;99.90
1417;DHT22;703;51.162;13.574;2023-05-07T05:35:42;8.80;99.90
1417;DHT22;703;51.162;13.574;2023-05-07T05:38:07;8.70;99.90
1417;DHT22;703;51.162;13.574;2023-05-07T05:40:33;8.70;99.90
1417;DHT22;703;51.162;13.574;2023-05-07T05:42:59;8.70;99.90
1417;DHT22;703;51.162;13.574;2023-05-07T05:45:24;8.70;99.90
1417;DHT22;703;51.162;13.574;2023-05-07T05:47:50;8.70;99.90
1417;DHT22;703;51.162;13.574;2023-05-07T05:50:15;8.70;99.90
1417;DHT22;703;51.162;13.574;2023-05-07T05:52:41;8.80;99.90
1417;DHT22;703;51.162;13.574;2023-05-07T05:55:07;9.00;99.90
1417;DHT22;703;51.162;13.574;2023-05-07T05:57:33;9.00;99.90
1417;DHT22;703;51.162;13.574;2023-05-07T05:59:59;9.10;99.90
1417;DHT22;703;51.162;13.574;2023-05-07T06:02:25;9.00;99.90
1417;DHT22;703;51.162;13.574;2023-05-07T06:04:50;9.10;99.90
1417;DHT22;703;51.162;13.574;2023-05-07T06:07:16;9.30;99.90
1417;DHT22;703;51.162;13.574;2023-05-07T06:09:41;9.20;99.90
1417;DHT22;703;51.162;13.574;2023-05-07T06:12:07;9.20;99.90
1417;DHT22;703;51.162;13.574;2023-05-07T06:14:32;9.20;99.90
1417;DHT22;703;51.162;13.574;2023-05-07T06:16:58;9.20;99.90
1417;DHT22;703;51.162;13.574;2023-05-07T06:19:23;9.20;99.90
1417;DHT22;703;51.162;13.574;2023-05-07T06:21:49;9.10;99.90
1417;DHT22;703;51.162;13.574;2023-05-07T06:24:15;9.30;99.90
1417;DHT22;703;51.162;13.574;2023-05-07T06:26:40;9.10;99.90
1417;DHT22;703;51.162;13.574;2023-05-07T06:29:06;9.10;99.90
1417;DHT22;703;51.162;13.574;2023-05-07T06:31:31;9.10;99.90
1417;DHT22;703;51.162;13.574;2023-05-07T06:33:57;9.10;99.90
1417;DHT22;703;51.162;13.574;2023-05-07T06:36:23;9.10;99.90
1417;DHT22;703;51.162;13.574;2023-05-07T06:38:48;9.20;99.90
1417;DHT22;703;51.162;13.574;2023-05-07T06:41:14;9.30;99.90
1417;DHT22;703;51.162;13.574;2023-05-07T06:43:39;9.30;99.90
1417;DHT22;703;51.162;13.574;2023-05-07T06:46:05;9.30;99.90
1417;DHT22;703;51.162;13.574;2023-05-07T06:48:30;9.30;99.90
1417;DHT22;703;51.162;13.574;2023-05-07T06:50:56;11.30;99.90
1417;DHT22;703;51.162;13.574;2023-05-07T06:53:23;9.20;99.90
1417;DHT22;703;51.162;13.574;2023-05-07T06:55:48;9.10;99.90
1417;DHT22;703;51.162;13.574;2023-05-07T06:58:14;9.10;99.90
1417;DHT22;703;51.162;13.574;2023-05-07T07:00:39;9.10;99.90
1417;DHT22;703;51.162;13.574;2023-05-07T07:03:06;9.20;99.90
1417;DHT22;703;51.162;13.574;2023-05-07T07:05:31;9.20;99.90
1417;DHT22;703;51.162;13.574;2023-05-07T07:07:57;9.30;99.90
1417;DHT22;703;51.162;13.574;2023-05-07T07:10:22;9.20;99.90
1417;DHT22;703;51.162;13.574;2023-05-07T07:12:48;9.20;99.90
1417;DHT22;703;51.162;13.574;2023-05-07T07:15:14;9.30;99.90
1417;DHT22;703;51.162;13.574;2023-05-07T07:17:40;9.30;99.90
1417;DHT22;703;51.162;13.574;2023-05-07T07:20:05;9.20;99.90
1417;DHT22;703;51.162;13.574;2023-05-07T07:22:31;9.10;99.90
1417;DHT22;703;51.162;13.574;2023-05-07T07:24:57;9.20;99.90
1417;DHT22;703;51.162;13.574;2023-05-07T07:27:22;9.30;99.90
1417;DHT22;703;51.162;13.574;2023-05-07T07:29:48;9.40;99.90
1417;DHT22;703;51.162;13.574;2023-05-07T07:32:13;9.40;99.90
1417;DHT22;703;51.162;13.574;2023-05-07T07:34:43;9.50;99.90
1417;DHT22;703;51.162;13.574;2023-05-07T07:37:14;9.40;99.90
1417;DHT22;703;51.162;13.574;2023-05-07T07:39:42;9.70;99.90
1417;DHT22;703;51.162;13.574;2023-05-07T07:42:07;9.80;99.90
1417;DHT22;703;51.162;13.574;2023-05-07T07:44:36;9.80;99.90
1417;DHT22;703;51.162;13.574;2023-05-07T07:47:04;10.00;99.90
1417;DHT22;703;51.162;13.574;2023-05-07T07:49:30;9.90;99.90
1417;DHT22;703;51.162;13.574;2023-05-07T07:51:58;9.90;99.90
1417;DHT22;703;51.162;13.574;2023-05-07T07:54:26;9.80;99.90
1417;DHT22;703;51.162;13.574;2023-05-07T07:56:51;9.70;99.90
1417;DHT22;703;51.162;13.574;2023-05-07T08:01:46;9.60;99.90
1417;DHT22;703;51.162;13.574;2023-05-07T08:04:14;9.60;99.90
1417;DHT22;703;51.162;13.574;2023-05-07T08:06:40;9.60;99.90
1417;DHT22;703;51.162;13.574;2023-05-07T08:09:06;9.70;99.90
1417;DHT22;703;51.162;13.574;2023-05-07T08:11:31;9.70;99.90
1417;DHT22;703;51.162;13.574;2023-05-07T08:13:57;9.70;99.90
1417;DHT22;703;51.162;13.574;2023-05-07T08:16:25;9.80;99.90
1417;DHT22;703;51.162;13.574;2023-05-07T08:19:02;9.70;99.90
1417;DHT22;703;51.162;13.574;2023-05-07T08:21:31;9.80;99.90
1417;DHT22;703;51.162;13.574;2023-05-07T08:23:59;9.90;99.90
1417;DHT22;703;51.162;13.574;2023-05-07T08:26:29;9.90;99.90
1417;DHT22;703;51.162;13.574;2023-05-07T08:28:57;9.70;99.90
1417;DHT22;703;51.162;13.574;2023-05-07T08:31:23;9.80;99.90
1417;DHT22;703;51.162;13.574;2023-05-07T08:33:49;9.90;99.90
1417;DHT22;703;51.162;13.574;2023-05-07T08:36:15;10.00;99.90
1417;DHT22;703;51.162;13.574;2023-05-07T08:38:43;10.00;99.90
1417;DHT22;703;51.162;13.574;2023-05-07T08:41:10;10.30;99.90
1417;DHT22;703;51.162;13.574;2023-05-07T08:43:36;10.40;99.90
1417;DHT22;703;51.162;13.574;2023-05-07T08:46:08;10.30;99.90
1417;DHT22;703;51.162;13.574;2023-05-07T08:48:34;10.20;99.90
1417;DHT22;703;51.162;13.574;2023-05-07T08:51:00;10.40;99.90
1417;DHT22;703;51.162;13.574;2023-05-07T08:53:28;10.30;99.90
1417;DHT22;703;51.162;13.574;2023-05-07T08:55:54;10.20;99.90
1417;DHT22;703;51.162;13.574;2023-05-07T08:58:23;10.10;99.90
1417;DHT22;703;51.162;13.574;2023-05-07T09:00:48;10.10;99.90
1417;DHT22;703;51.162;13.574;2023-05-07T09:03:14;10.10;99.90
1417;DHT22;703;51.162;13.574;2023-05-07T09:05:41;10.30;99.90
1417;DHT22;703;51.162;13.574;2023-05-07T09:08:10;10.20;99.90
1417;DHT22;703;51.162;13.574;2023-05-07T09:10:39;10.30;99.90
1417;DHT22;703;51.162;13.574;2023-05-07T09:13:10;10.30;99.90
1417;DHT22;703;51.162;13.574;2023-05-07T09:15:41;10.30;99.90
1417;DHT22;703;51.162;13.574;2023-05-07T09:18:09;10.40;99.90
1417;DHT22;703;51.162;13.574;2023-05-07T09:20:38;10.40;99.90
1417;DHT22;703;51.162;13.574;2023-05-07T09:23:06;10.30;99.90
1417;DHT22;703;51.162;13.574;2023-05-07T09:25:33;10.20;99.90
1417;DHT22;703;51.162;13.574;2023-05-07T09:27:59;10.40;99.90
1417;DHT22;703;51.162;13.574;2023-05-07T09:30:28;10.20;99.90
1417;DHT22;703;51.162;13.574;2023-05-07T09:32:55;10.30;99.90
1417;DHT22;703;51.162;13.574;2023-05-07T09:35:20;10.30;99.90
1417;DHT22;703;51.162;13.574;2023-05-07T09:38:08;10.40;99.90
1417;DHT22;703;51.162;13.574;2023-05-07T09:40:36;10.30;99.90
1417;DHT22;703;51.162;13.574;2023-05-07T09:43:08;10.20;99.90
1417;DHT22;703;51.162;13.574;2023-05-07T09:45:39;10.10;99.90
1417;DHT22;703;51.162;13.574;2023-05-07T09:48:06;10.10;99.90
1417;DHT22;703;51.162;13.574;2023-05-07T09:50:44;10.30;99.90
1417;DHT22;703;51.162;13.574;2023-05-07T09:53:12;10.30;99.90
1417;DHT22;703;51.162;13.574;2023-05-07T09:55:38;10.40;99.90
1417;DHT22;703;51.162;13.574;2023-05-07T09:58:04;10.40;99.90
1417;DHT22;703;51.162;13.574;2023-05-07T10:00:35;10.40;99.90
1417;DHT22;703;51.162;13.574;2023-05-07T10:03:01;10.30;99.90
1417;DHT22;703;51.162;13.574;2023-05-07T10:05:28;10.40;99.90
1417;DHT22;703;51.162;13.574;2023-05-07T10:07:57;10.30;99.90
1417;DHT22;703;51.162;13.574;2023-05-07T10:10:22;10.20;99.90
1417;DHT22;703;51.162;13.574;2023-05-07T10:12:52;10.20;99.90
1417;DHT22;703;51.162;13.574;2023-05-07T10:15:18;10.30;99.90
1417;DHT22;703;51.162;13.574;2023-05-07T10:17:48;10.10;99.90
1417;DHT22;703;51.162;13.574;2023-05-07T10:20:14;10.30;99.90
1417;DHT22;703;51.162;13.574;2023-05-07T10:22:43;10.50;99.90
1417;DHT22;703;51.162;13.574;2023-05-07T10:25:32;10.40;99.90
1417;DHT22;703;51.162;13.574;2023-05-07T10:27:58;10.30;99.90
1417;DHT22;703;51.162;13.574;2023-05-07T10:33:11;10.60;99.90
1417;DHT22;703;51.162;13.574;2023-05-07T10:35:42;10.90;99.90
1417;DHT22;703;51.162;13.574;2023-05-07T10:38:16;11.00;99.90
1417;DHT22;703;51.162;13.574;2023-05-07T10:40:42;11.10;99.90
1417;DHT22;703;51.162;13.574;2023-05-07T10:43:08;11.10;99.90
1417;DHT22;703;51.162;13.574;2023-05-07T10:45:34;11.30;99.90
1417;DHT22;703;51.162;13.574;2023-05-07T10:50:31;11.40;99.90
1417;DHT22;703;51.162;13.574;2023-05-07T10:55:44;11.30;99.90
1417;DHT22;703;51.162;13.574;2023-05-07T10:58:25;11.20;99.90
1417;DHT22;703;51.162;13.574;2023-05-07T11:00:56;11.30;99.90
1417;DHT22;703;51.162;13.574;2023-05-07T11:03:25;11.20;99.90
1417;DHT22;703;51.162;13.574;2023-05-07T11:06:33;11.20;99.90
1417;DHT22;703;51.162;13.574;2023-05-07T11:08:55;11.10;99.90
1417;DHT22;703;51.162;13.574;2023-05-07T11:14:08;11.20;99.90
1417;DHT22;703;51.162;13.574;2023-05-07T11:16:33;11.40;99.90
1417;DHT22;703;51.162;13.574;2023-05-07T11:19:01;11.70;99.90
1417;DHT22;703;51.162;13.574;2023-05-07T11:24:04;12.20;99.90
1417;DHT22;703;51.162;13.574;2023-05-07T11:26:41;12.30;99.90
1417;DHT22;703;51.162;13.574;2023-05-07T11:29:41;12.20;99.90
1417;DHT22;703;51.162;13.574;2023-05-07T11:31:59;12.10;99.90
1417;DHT22;703;51.162;13.574;2023-05-07T11:34:29;11.90;99.90
1417;DHT22;703;51.162;13.574;2023-05-07T11:36:57;11.80;99.90
1417;DHT22;703;51.162;13.574;2023-05-07T11:39:31;16.80;99.90
1417;DHT22;703;51.162;13.574;2023-05-07T11:42:01;12.10;99.90
1417;DHT22;703;51.162;13.574;2023-05-07T11:44:40;12.20;99.90
1417;DHT22;703;51.162;13.574;2023-05-07T11:47:09;12.10;99.90
1417;DHT22;703;51.162;13.574;2023-05-07T11:49:34;12.90;99.90
1417;DHT22;703;51.162;13.574;2023-05-07T11:52:03;12.90;99.90
1417;DHT22;703;51.162;13.574;2023-05-07T11:54:37;13.10;99.90
1417;DHT22;703;51.162;13.574;2023-05-07T11:57:03;13.20;99.90
1417;DHT22;703;51.162;13.574;2023-05-07T11:59:41;13.20;99.90
1417;DHT22;703;51.162;13.574;2023-05-07T12:02:07;13.20;99.90
1417;DHT22;703;51.162;13.574;2023-05-07T12:04:37;13.00;99.90
1417;DHT22;703;51.162;13.574;2023-05-07T12:07:03;12.40;99.90
1417;DHT22;703;51.162;13.574;2023-05-07T12:09:36;12.40;99.90
1417;DHT22;703;51.162;13.574;2023-05-07T12:12:04;12.40;99.90
1417;DHT22;703;51.162;13.574;2023-05-07T12:14:30;12.60;99.90
1417;DHT22;703;51.162;13.574;2023-05-07T12:16:59;12.30;99.90
1417;DHT22;703;51.162;13.574;2023-05-07T12:19:27;12.60;99.90
1417;DHT22;703;51.162;13.574;2023-05-07T12:22:02;12.60;99.90
1417;DHT22;703;51.162;13.574;2023-05-07T12:24:46;12.70;99.90
1417;DHT22;703;51.162;13.574;2023-05-07T12:27:21;12.80;99.90
1417;DHT22;703;51.162;13.574;2023-05-07T12:29:52;12.90;99.90
1417;DHT22;703;51.162;13.574;2023-05-07T12:32:20;12.90;99.90
1417;DHT22;703;51.162;13.574;2023-05-07T12:34:46;12.60;99.90
1417;DHT22;703;51.162;13.574;2023-05-07T12:37:14;12.50;99.90
1417;DHT22;703;51.162;13.574;2023-05-07T12:39:49;13.00;99.90
1417;DHT22;703;51.162;13.574;2023-05-07T12:42:15;13.00;99.90
1417;DHT22;703;51.162;13.574;2023-05-07T12:44:45;12.90;99.90
1417;DHT22;703;51.162;13.574;2023-05-07T12:47:11;13.10;99.90
1417;DHT22;703;51.162;13.574;2023-05-07T12:49:43;13.00;99.90
1417;DHT22;703;51.162;13.574;2023-05-07T12:52:13;13.00;99.90
1417;DHT22;703;51.162;13.574;2023-05-07T12:54:39;12.90;99.90
1417;DHT22;703;51.162;13.574;2023-05-07T12:57:05;12.90;99.90
1417;DHT22;703;51.162;13.574;2023-05-07T12:59:41;13.70;99.90
1417;DHT22;703;51.162;13.574;2023-05-07T13:02:07;13.70;99.90
1417;DHT22;703;51.162;13.574;2023-05-07T13:04:33;13.80;99.90
1417;DHT22;703;51.162;13.574;2023-05-07T13:07:02;13.90;99.90
1417;DHT22;703;51.162;13.574;2023-05-07T13:09:28;14.00;99.90
1417;DHT22;703;51.162;13.574;2023-05-07T13:11:54;13.90;99.90
1417;DHT22;703;51.162;13.574;2023-05-07T13:14:27;13.90;99.90
1417;DHT22;703;51.162;13.574;2023-05-07T13:16:53;14.10;99.90
1417;DHT22;703;51.162;13.574;2023-05-07T13:19:26;14.60;99.90
1417;DHT22;703;51.162;13.574;2023-05-07T13:21:54;14.50;99.90
1417;DHT22;703;51.162;13.574;2023-05-07T13:24:20;14.60;99.90
1417;DHT22;703;51.162;13.574;2023-05-07T13:26:53;14.60;99.90
1417;DHT22;703;51.162;13.574;2023-05-07T13:29:22;14.60;99.90
1417;DHT22;703;51.162;13.574;2023-05-07T13:31:54;14.60;99.90
1417;DHT22;703;51.162;13.574;2023-05-07T13:34:22;14.90;99.90
1417;DHT22;703;51.162;13.574;2023-05-07T13:36:51;15.40;99.90
1417;DHT22;703;51.162;13.574;2023-05-07T13:39:17;15.60;99.90
1417;DHT22;703;51.162;13.574;2023-05-07T13:41:45;15.10;99.90
1417;DHT22;703;51.162;13.574;2023-05-07T13:44:10;15.00;99.90
1417;DHT22;703;51.162;13.574;2023-05-07T13:46:36;15.30;99.90
1417;DHT22;703;51.162;13.574;2023-05-07T13:49:05;15.40;99.90
1417;DHT22;703;51.162;13.574;2023-05-07T13:51:33;15.10;99.90
1417;DHT22;703;51.162;13.574;2023-05-07T13:54:04;14.10;99.90
1417;DHT22;703;51.162;13.574;2023-05-07T13:56:35;14.60;99.90
1417;DHT22;703;51.162;13.574;2023-05-07T13:59:03;14.50;99.90
1417;DHT22;703;51.162;13.574;2023-05-07T14:01:31;14.50;99.90
1417;DHT22;703;51.162;13.574;2023-05-07T14:04:05;14.40;99.90
1417;DHT22;703;51.162;13.574;2023-05-07T14:06:39;14.10;99.90
1417;DHT22;703;51.162;13.574;2023-05-07T14:09:07;13.90;99.90
1417;DHT22;703;51.162;13.574;2023-05-07T14:11:36;13.60;99.90
1417;DHT22;703;51.162;13.574;2023-05-07T14:14:01;13.80;99.90
1417;DHT22;703;51.162;13.574;2023-05-07T14:16:37;13.80;99.90
1417;DHT22;703;51.162;13.574;2023-05-07T14:19:05;14.20;99.90
1417;DHT22;703;51.162;13.574;2023-05-07T14:21:30;14.20;99.90
1417;DHT22;703;51.162;13.574;2023-05-07T14:23:59;14.00;99.90
1417;DHT22;703;51.162;13.574;2023-05-07T14:26:29;13.90;99.90
1417;DHT22;703;51.162;13.574;2023-05-07T14:28:57;13.80;99.90
1417;DHT22;703;51.162;13.574;2023-05-07T14:31:26;13.70;99.90
1417;DHT22;703;51.162;13.574;2023-05-07T14:33:51;13.80;99.90
1417;DHT22;703;51.162;13.574;2023-05-07T14:36:19;16.40;99.90
1417;DHT22;703;51.162;13.574;2023-05-07T14:38:53;14.10;99.90
1417;DHT22;703;51.162;13.574;2023-05-07T14:41:20;13.90;99.90
1417;DHT22;703;51.162;13.574;2023-05-07T14:43:47;13.90;99.90
1417;DHT22;703;51.162;13.574;2023-05-07T14:46:18;13.70;99.90
1417;DHT22;703;51.162;13.574;2023-05-07T14:48:44;13.80;99.90
1417;DHT22;703;51.162;13.574;2023-05-07T14:51:12;13.70;99.90
1417;DHT22;703;51.162;13.574;2023-05-07T14:53:38;13.70;99.90
1417;DHT22;703;51.162;13.574;2023-05-07T14:56:06;13.70;99.90
1417;DHT22;703;51.162;13.574;2023-05-07T14:58:32;13.90;99.90
1417;DHT22;703;51.162;13.574;2023-05-07T15:01:10;13.80;99.90
1417;DHT22;703;51.162;13.574;2023-05-07T15:03:42;13.60;99.90
1417;DHT22;703;51.162;13.574;2023-05-07T15:06:11;13.60;99.90
1417;DHT22;703;51.162;13.574;2023-05-07T15:08:36;13.70;99.90
1417;DHT22;703;51.162;13.574;2023-05-07T15:11:07;13.50;99.90
1417;DHT22;703;51.162;13.574;2023-05-07T15:13:35;13.20;99.90
1417;DHT22;703;51.162;13.574;2023-05-07T15:16:03;13.10;99.90
1417;DHT22;703;51.162;13.574;2023-05-07T15:18:29;13.10;99.90
1417;DHT22;703;51.162;13.574;2023-05-07T15:21:03;13.10;99.90
1417;DHT22;703;51.162;13.574;2023-05-07T15:23:32;13.50;99.90
1417;DHT22;703;51.162;13.574;2023-05-07T15:26:00;13.40;99.90
1417;DHT22;703;51.162;13.574;2023-05-07T15:28:28;13.50;99.90
1417;DHT22;703;51.162;13.574;2023-05-07T15:30:54;13.40;99.90
1417;DHT22;703;51.162;13.574;2023-05-07T15:33:25;13.60;99.90
1417;DHT22;703;51.162;13.574;2023-05-07T15:35:55;13.20;99.90
1417;DHT22;703;51.162;13.574;2023-05-07T15:38:24;13.40;99.90
1417;DHT22;703;51.162;13.574;2023-05-07T15:40:52;13.10;99.90
1417;DHT22;703;51.162;13.574;2023-05-07T15:43:18;13.00;99.90
1417;DHT22;703;51.162;13.574;2023-05-07T15:45:51;13.00;99.90
1417;DHT22;703;51.162;13.574;2023-05-07T15:48:19;12.90;99.90
1417;DHT22;703;51.162;13.574;2023-05-07T15:50:49;12.80;99.90
1417;DHT22;703;51.162;13.574;2023-05-07T15:53:17;12.70;99.90
1417;DHT22;703;51.162;13.574;2023-05-07T15:55:43;12.80;99.90
1417;DHT22;703;51.162;13.574;2023-05-07T15:58:08;9.60;99.90
1417;DHT22;703;51.162;13.574;2023-05-07T16:00:37;12.60;99.90
1417;DHT22;703;51.162;13.574;2023-05-07T16:03:04;12.50;99.90
1417;DHT22;703;51.162;13.574;2023-05-07T16:05:32;12.50;99.90
1417;DHT22;703;51.162;13.574;2023-05-07T16:08:04;12.20;99.90
1417;DHT22;703;51.162;13.574;2023-05-07T16:10:35;12.40;99.90
1417;DHT22;703;51.162;13.574;2023-05-07T16:13:01;12.40;99.90
1417;DHT22;703;51.162;13.574;2023-05-07T16:15:28;12.20;99.90
1417;DHT22;703;51.162;13.574;2023-05-07T16:17:56;12.10;99.90
1417;DHT22;703;51.162;13.574;2023-05-07T16:20:26;12.10;99.90
1417;DHT22;703;51.162;13.574;2023-05-07T16:22:56;12.00;99.90
1417;DHT22;703;51.162;13.574;2023-05-07T16:25:24;12.00;99.90
1417;DHT22;703;51.162;13.574;2023-05-07T16:27:51;11.90;99.90
1417;DHT22;703;51.162;13.574;2023-05-07T16:30:19;11.90;99.90
1417;DHT22;703;51.162;13.574;2023-05-07T16:32:45;11.90;99.90
1417;DHT22;703;51.162;13.574;2023-05-07T16:35:10;11.80;99.90